sensor_id;sensor_type;location;lat;lon;timestamp;pressure;altitude;pressure_sealevel;temperature;humidity
79612;BME280;69094;48.154;11.536;2023-12-29T00:01:53;95660.53;;;8.08;64.09
79612;BME280;69094;48.154;11.536;2023-12-29T00:04:19;95662.94;;;8.09;64.23
79612;BME280;69094;48.154;11.536;2023-12-29T00:06:45;95656.53;;;8.05;64.90
79612;BME280;69094;48.154;11.536;2023-12-29T00:09:10;95667.38;;;8.05;64.91
79612;BME280;69094;48.154;11.536;2023-12-29T00:11:36;95657.13;;;8.02;65.23
79612;BME280;69094;48.154;11.536;2023-12-29T00:14:01;95652.81;;;8.01;65.38
79612;BME280;69094;48.154;11.536;2023-12-29T00:16:29;95624.34;;;7.90;65.40
79612;BME280;69094;48.154;11.536;2023-12-29T00:18:55;95646.63;;;8.01;65.81
79612;BME280;69094;48.154;11.536;2023-12-29T00:21:20;95641.38;;;8.04;65.68
79612;BME280;69094;48.154;11.536;2023-12-29T00:23:46;95632.19;;;7.91;65.94
79612;BME280;69094;48.154;11.536;2023-12-29T00:26:12;95638.22;;;7.88;66.27
79612;BME280;69094;48.154;11.536;2023-12-29T00:28:37;95623.16;;;7.82;66.54
79612;BME280;69094;48.154;11.536;2023-12-29T00:31:06;95627.91;;;7.76;66.59
79612;BME280;69094;48.154;11.536;2023-12-29T00:33:31;95633.81;;;7.79;66.46
79612;BME280;69094;48.154;11.536;2023-12-29T00:35:57;95623.09;;;7.73;66.83
79612;BME280;69094;48.154;11.536;2023-12-29T00:38:23;95610.47;;;7.69;66.51
79612;BME280;69094;48.154;11.536;2023-12-29T00:40:48;95611.28;;;7.69;66.64
79612;BME280;69094;48.154;11.536;2023-12-29T00:43:14;95622.50;;;7.76;66.71
79612;BME280;69094;48.154;11.536;2023-12-29T00:45:39;95611.88;;;7.66;66.66
79612;BME280;69094;48.154;11.536;2023-12-29T00:48:05;95617.91;;;7.63;66.28
79612;BME280;69094;48.154;11.536;2023-12-29T00:50:30;95608.41;;;7.52;67.35
79612;BME280;69094;48.154;11.536;2023-12-29T00:52:55;95612.13;;;7.42;67.20
79612;BME280;69094;48.154;11.536;2023-12-29T00:55:21;95609.84;;;7.36;67.45
79612;BME280;69094;48.154;11.536;2023-12-29T00:57:46;95607.31;;;7.39;67.60
79612;BME280;69094;48.154;11.536;2023-12-29T01:00:12;95607.94;;;7.36;67.54
79612;BME280;69094;48.154;11.536;2023-12-29T01:02:39;95604.53;;;7.30;67.15
79612;BME280;69094;48.154;11.536;2023-12-29T01:05:05;95604.63;;;7.25;67.89
79612;BME280;69094;48.154;11.536;2023-12-29T01:07:30;95592.31;;;7.19;67.46
79612;BME280;69094;48.154;11.536;2023-12-29T01:09:56;95607.44;;;7.20;67.50
79612;BME280;69094;48.154;11.536;2023-12-29T01:12:21;95585.13;;;7.01;67.53
79612;BME280;69094;48.154;11.536;2023-12-29T01:14:47;95606.84;;;7.09;67.99
79612;BME280;69094;48.154;11.536;2023-12-29T01:17:12;95612.88;;;7.06;67.56
79612;BME280;69094;48.154;11.536;2023-12-29T01:19:37;95616.19;;;7.03;68.08
79612;BME280;69094;48.154;11.536;2023-12-29T01:22:03;95630.00;;;7.02;68.29
79612;BME280;69094;48.154;11.536;2023-12-29T01:24:28;95620.88;;;6.98;67.86
79612;BME280;69094;48.154;11.536;2023-12-29T01:26:54;95616.06;;;6.95;68.03
79612;BME280;69094;48.154;11.536;2023-12-29T01:29:19;95624.41;;;6.98;68.05
79612;BME280;69094;48.154;11.536;2023-12-29T01:31:44;95624.19;;;6.95;67.81
79612;BME280;69094;48.154;11.536;2023-12-29T01:34:10;95622.28;;;6.95;67.04
79612;BME280;69094;48.154;11.536;2023-12-29T01:36:35;95628.00;;;6.94;68.04
79612;BME280;69094;48.154;11.536;2023-12-29T01:39:00;95626.38;;;6.93;67.52
79612;BME280;69094;48.154;11.536;2023-12-29T01:41:28;95622.88;;;6.92;67.18
79612;BME280;69094;48.154;11.536;2023-12-29T01:46:27;95621.47;;;6.95;66.59
79612;BME280;69094;48.154;11.536;2023-12-29T01:48:53;95613.28;;;6.86;67.54
79612;BME280;69094;48.154;11.536;2023-12-29T01:51:21;95611.38;;;6.86;67.29
79612;BME280;69094;48.154;11.536;2023-12-29T01:53:55;95611.38;;;6.86;66.54
79612;BME280;69094;48.154;11.536;2023-12-29T01:56:21;95599.94;;;6.89;66.48
79612;BME280;69094;48.154;11.536;2023-12-29T01:58:49;95596.72;;;6.87;66.85
79612;BME280;69094;48.154;11.536;2023-12-29T02:01:16;95605.97;;;6.86;65.88
79612;BME280;69094;48.154;11.536;2023-12-29T02:03:44;95603.66;;;6.94;65.64
79612;BME280;69094;48.154;11.536;2023-12-29T02:06:09;95603.25;;;6.86;66.21
79612;BME280;69094;48.154;11.536;2023-12-29T02:08:40;95598.34;;;6.88;65.52
79612;BME280;69094;48.154;11.536;2023-12-29T02:11:06;95596.53;;;6.84;66.41
79612;BME280;69094;48.154;11.536;2023-12-29T02:13:31;95593.63;;;6.80;64.78
79612;BME280;69094;48.154;11.536;2023-12-29T02:15:58;95581.91;;;6.85;64.69
79612;BME280;69094;48.154;11.536;2023-12-29T02:18:26;95590.81;;;6.85;64.78
79612;BME280;69094;48.154;11.536;2023-12-29T02:20:55;95580.91;;;6.95;63.68
79612;BME280;69094;48.154;11.536;2023-12-29T02:23:20;95577.09;;;6.96;63.35
79612;BME280;69094;48.154;11.536;2023-12-29T02:25:46;95584.13;;;6.97;63.29
79612;BME280;69094;48.154;11.536;2023-12-29T02:28:17;95581.19;;;7.07;61.90
79612;BME280;69094;48.154;11.536;2023-12-29T02:31:00;95581.88;;;7.12;61.58
79612;BME280;69094;48.154;11.536;2023-12-29T02:33:27;95580.38;;;7.20;61.09
79612;BME280;69094;48.154;11.536;2023-12-29T02:35:56;95575.34;;;7.27;60.20
79612;BME280;69094;48.154;11.536;2023-12-29T02:38:24;95576.84;;;7.33;60.03
79612;BME280;69094;48.154;11.536;2023-12-29T02:40:53;95571.84;;;7.27;60.11
79612;BME280;69094;48.154;11.536;2023-12-29T02:43:19;95580.88;;;7.22;60.17
79612;BME280;69094;48.154;11.536;2023-12-29T02:45:45;95570.38;;;7.21;59.84
79612;BME280;69094;48.154;11.536;2023-12-29T02:48:10;95568.13;;;7.23;59.63
79612;BME280;69094;48.154;11.536;2023-12-29T02:50:36;95563.84;;;7.22;59.72
79612;BME280;69094;48.154;11.536;2023-12-29T02:53:01;95563.22;;;7.25;59.21
79612;BME280;69094;48.154;11.536;2023-12-29T02:55:26;95563.22;;;7.39;58.41
79612;BME280;69094;48.154;11.536;2023-12-29T02:57:52;95550.59;;;7.34;57.89
79612;BME280;69094;48.154;11.536;2023-12-29T03:00:17;95557.97;;;7.42;57.79
79612;BME280;69094;48.154;11.536;2023-12-29T03:02:43;95551.59;;;7.38;57.86
79612;BME280;69094;48.154;11.536;2023-12-29T03:05:09;95559.78;;;7.47;58.06
79612;BME280;69094;48.154;11.536;2023-12-29T03:07:35;95545.72;;;7.45;57.46
79612;BME280;69094;48.154;11.536;2023-12-29T03:10:00;95539.94;;;7.38;57.32
79612;BME280;69094;48.154;11.536;2023-12-29T03:12:25;95535.94;;;7.35;57.36
79612;BME280;69094;48.154;11.536;2023-12-29T03:14:51;95537.84;;;7.34;57.98
79612;BME280;69094;48.154;11.536;2023-12-29T03:17:16;95523.22;;;7.36;57.77
79612;BME280;69094;48.154;11.536;2023-12-29T03:19:42;95534.53;;;7.38;57.36
79612;BME280;69094;48.154;11.536;2023-12-29T03:22:07;95521.44;;;7.31;57.18
79612;BME280;69094;48.154;11.536;2023-12-29T03:24:33;95535.34;;;7.38;57.22
79612;BME280;69094;48.154;11.536;2023-12-29T03:26:58;95533.53;;;7.33;57.14
79612;BME280;69094;48.154;11.536;2023-12-29T03:29:23;95534.34;;;7.34;56.84
79612;BME280;69094;48.154;11.536;2023-12-29T03:31:49;95534.06;;;7.36;56.56
79612;BME280;69094;48.154;11.536;2023-12-29T03:34:14;95531.81;;;7.38;56.17
79612;BME280;69094;48.154;11.536;2023-12-29T03:36:39;95536.03;;;7.44;56.35
79612;BME280;69094;48.154;11.536;2023-12-29T03:39:05;95536.94;;;7.39;55.80
79612;BME280;69094;48.154;11.536;2023-12-29T03:41:31;95537.34;;;7.32;56.28
79612;BME280;69094;48.154;11.536;2023-12-29T03:43:56;95532.16;;;7.22;56.03
79612;BME280;69094;48.154;11.536;2023-12-29T03:46:22;95525.66;;;7.23;56.68
79612;BME280;69094;48.154;11.536;2023-12-29T03:48:48;95533.88;;;7.18;55.85
79612;BME280;69094;48.154;11.536;2023-12-29T03:51:15;95520.47;;;7.13;56.06
79612;BME280;69094;48.154;11.536;2023-12-29T03:53:40;95529.44;;;7.22;55.54
79612;BME280;69094;48.154;11.536;2023-12-29T03:56:07;95530.34;;;7.31;54.91
79612;BME280;69094;48.154;11.536;2023-12-29T03:58:33;95519.78;;;7.44;54.36
79612;BME280;69094;48.154;11.536;2023-12-29T04:00:58;95522.25;;;7.54;54.31
79612;BME280;69094;48.154;11.536;2023-12-29T04:03:23;95528.91;;;7.70;53.48
79612;BME280;69094;48.154;11.536;2023-12-29T04:05:49;95519.91;;;7.84;52.87
79612;BME280;69094;48.154;11.536;2023-12-29T04:08:14;95515.66;;;7.91;52.51
79612;BME280;69094;48.154;11.536;2023-12-29T04:10:39;95513.63;;;7.97;52.62
79612;BME280;69094;48.154;11.536;2023-12-29T04:13:05;95515.13;;;8.03;52.32
79612;BME280;69094;48.154;11.536;2023-12-29T04:15:30;95510.34;;;8.09;51.90
79612;BME280;69094;48.154;11.536;2023-12-29T04:17:55;95516.44;;;8.14;51.96
79612;BME280;69094;48.154;11.536;2023-12-29T04:20:21;95512.81;;;8.19;51.90
79612;BME280;69094;48.154;11.536;2023-12-29T04:22:46;95510.88;;;8.19;51.51
79612;BME280;69094;48.154;11.536;2023-12-29T04:25:12;95504.53;;;8.24;51.65
79612;BME280;69094;48.154;11.536;2023-12-29T04:27:37;95514.59;;;8.24;52.00
79612;BME280;69094;48.154;11.536;2023-12-29T04:30:03;95513.66;;;8.28;52.05
79612;BME280;69094;48.154;11.536;2023-12-29T04:32:28;95507.09;;;8.29;51.94
79612;BME280;69094;48.154;11.536;2023-12-29T04:34:53;95520.66;;;8.29;52.13
79612;BME280;69094;48.154;11.536;2023-12-29T04:37:19;95507.75;;;8.26;52.08
79612;BME280;69094;48.154;11.536;2023-12-29T04:39:44;95510.16;;;8.28;52.01
79612;BME280;69094;48.154;11.536;2023-12-29T04:42:09;95503.13;;;8.27;52.15
79612;BME280;69094;48.154;11.536;2023-12-29T04:44:35;95506.00;;;8.30;51.69
79612;BME280;69094;48.154;11.536;2023-12-29T04:47:00;95504.88;;;8.31;52.14
79612;BME280;69094;48.154;11.536;2023-12-29T04:49:26;95498.03;;;8.34;51.78
79612;BME280;69094;48.154;11.536;2023-12-29T04:51:51;95501.13;;;8.41;51.61
79612;BME280;69094;48.154;11.536;2023-12-29T04:54:17;95506.38;;;8.37;52.08
79612;BME280;69094;48.154;11.536;2023-12-29T04:56:42;95502.44;;;8.44;52.35
79612;BME280;69094;48.154;11.536;2023-12-29T04:59:08;95507.56;;;8.45;52.46
79612;BME280;69094;48.154;11.536;2023-12-29T05:01:33;95504.34;;;8.43;52.64
79612;BME280;69094;48.154;11.536;2023-12-29T05:03:58;95499.91;;;8.47;52.64
79612;BME280;69094;48.154;11.536;2023-12-29T05:06:24;95505.50;;;8.51;52.74
79612;BME280;69094;48.154;11.536;2023-12-29T05:08:49;95509.00;;;8.51;52.71
79612;BME280;69094;48.154;11.536;2023-12-29T05:11:14;95503.28;;;8.53;52.94
79612;BME280;69094;48.154;11.536;2023-12-29T05:13:40;95503.44;;;8.56;53.08
79612;BME280;69094;48.154;11.536;2023-12-29T05:16:05;95505.50;;;8.59;53.26
79612;BME280;69094;48.154;11.536;2023-12-29T05:18:31;95512.38;;;8.57;53.39
79612;BME280;69094;48.154;11.536;2023-12-29T05:20:56;95500.41;;;8.58;53.29
79612;BME280;69094;48.154;11.536;2023-12-29T05:23:22;95494.19;;;8.57;53.54
79612;BME280;69094;48.154;11.536;2023-12-29T05:25:47;95484.59;;;8.51;53.93
79612;BME280;69094;48.154;11.536;2023-12-29T05:28:12;95509.50;;;8.62;53.74
79612;BME280;69094;48.154;11.536;2023-12-29T05:30:38;95510.63;;;8.61;53.99
79612;BME280;69094;48.154;11.536;2023-12-29T05:33:03;95514.13;;;8.61;54.02
79612;BME280;69094;48.154;11.536;2023-12-29T05:35:28;95517.97;;;8.60;54.02
79612;BME280;69094;48.154;11.536;2023-12-29T05:37:54;95519.25;;;8.63;54.05
79612;BME280;69094;48.154;11.536;2023-12-29T05:40:19;95518.47;;;8.62;54.08
79612;BME280;69094;48.154;11.536;2023-12-29T05:42:44;95506.63;;;8.50;54.50
79612;BME280;69094;48.154;11.536;2023-12-29T05:45:10;95504.50;;;8.47;54.48
79612;BME280;69094;48.154;11.536;2023-12-29T05:47:35;95518.25;;;8.50;54.80
79612;BME280;69094;48.154;11.536;2023-12-29T05:50:01;95519.19;;;8.46;54.86
79612;BME280;69094;48.154;11.536;2023-12-29T05:52:26;95527.31;;;8.46;54.69
79612;BME280;69094;48.154;11.536;2023-12-29T05:54:52;95507.34;;;8.41;54.78
79612;BME280;69094;48.154;11.536;2023-12-29T05:57:17;95516.66;;;8.49;54.77
79612;BME280;69094;48.154;11.536;2023-12-29T05:59:43;95521.94;;;8.54;54.67
79612;BME280;69094;48.154;11.536;2023-12-29T06:02:08;95525.94;;;8.57;54.66
79612;BME280;69094;48.154;11.536;2023-12-29T06:04:33;95526.25;;;8.55;54.66
79612;BME280;69094;48.154;11.536;2023-12-29T06:06:59;95524.34;;;8.56;54.75
79612;BME280;69094;48.154;11.536;2023-12-29T06:09:25;95533.75;;;8.58;54.55
79612;BME280;69094;48.154;11.536;2023-12-29T06:11:50;95533.47;;;8.60;54.39
79612;BME280;69094;48.154;11.536;2023-12-29T06:14:16;95523.84;;;8.54;54.37
79612;BME280;69094;48.154;11.536;2023-12-29T06:16:41;95525.63;;;8.58;54.45
79612;BME280;69094;48.154;11.536;2023-12-29T06:19:08;95519.06;;;8.51;54.84
79612;BME280;69094;48.154;11.536;2023-12-29T06:21:41;95521.47;;;8.52;54.82
79612;BME280;69094;48.154;11.536;2023-12-29T06:24:08;95525.75;;;8.53;54.49
79612;BME280;69094;48.154;11.536;2023-12-29T06:26:35;95533.53;;;8.46;54.66
79612;BME280;69094;48.154;11.536;2023-12-29T06:29:07;95549.31;;;8.44;54.76
79612;BME280;69094;48.154;11.536;2023-12-29T06:31:32;95531.72;;;8.33;54.66
79612;BME280;69094;48.154;11.536;2023-12-29T06:33:59;95536.09;;;8.43;54.33
79612;BME280;69094;48.154;11.536;2023-12-29T06:36:27;95526.66;;;8.40;54.44
79612;BME280;69094;48.154;11.536;2023-12-29T06:38:52;95538.31;;;8.40;54.68
79612;BME280;69094;48.154;11.536;2023-12-29T06:41:19;95542.94;;;8.40;54.76
79612;BME280;69094;48.154;11.536;2023-12-29T06:43:44;95518.56;;;8.17;54.72
79612;BME280;69094;48.154;11.536;2023-12-29T06:46:11;95513.72;;;8.14;54.71
79612;BME280;69094;48.154;11.536;2023-12-29T06:48:37;95530.72;;;8.29;54.99
79612;BME280;69094;48.154;11.536;2023-12-29T06:51:03;95544.94;;;8.34;54.75
79612;BME280;69094;48.154;11.536;2023-12-29T06:53:28;95521.13;;;8.23;54.97
79612;BME280;69094;48.154;11.536;2023-12-29T06:55:54;95538.91;;;8.37;54.75
79612;BME280;69094;48.154;11.536;2023-12-29T06:58:19;95542.22;;;8.34;55.19
79612;BME280;69094;48.154;11.536;2023-12-29T07:00:45;95541.63;;;8.37;55.51
79612;BME280;69094;48.154;11.536;2023-12-29T07:03:13;95538.91;;;8.37;55.50
79612;BME280;69094;48.154;11.536;2023-12-29T07:05:39;95537.00;;;8.38;55.96
79612;BME280;69094;48.154;11.536;2023-12-29T07:08:04;95544.69;;;8.45;56.04
79612;BME280;69094;48.154;11.536;2023-12-29T07:10:30;95535.97;;;8.48;55.75
79612;BME280;69094;48.154;11.536;2023-12-29T07:12:55;95538.03;;;8.51;56.35
79612;BME280;69094;48.154;11.536;2023-12-29T07:15:20;95539.97;;;8.50;56.66
79612;BME280;69094;48.154;11.536;2023-12-29T07:17:47;95542.97;;;8.49;56.68
79612;BME280;69094;48.154;11.536;2023-12-29T07:20:13;95544.59;;;8.50;57.36
79612;BME280;69094;48.154;11.536;2023-12-29T07:22:38;95542.53;;;8.55;57.38
79612;BME280;69094;48.154;11.536;2023-12-29T07:25:04;95543.31;;;8.56;58.08
79612;BME280;69094;48.154;11.536;2023-12-29T07:27:29;95539.31;;;8.53;58.31
79612;BME280;69094;48.154;11.536;2023-12-29T07:29:55;95542.88;;;8.62;58.97
79612;BME280;69094;48.154;11.536;2023-12-29T07:32:20;95548.81;;;8.65;59.09
79612;BME280;69094;48.154;11.536;2023-12-29T07:34:46;95543.53;;;8.68;59.63
79612;BME280;69094;48.154;11.536;2023-12-29T07:37:11;95541.13;;;8.67;60.14
79612;BME280;69094;48.154;11.536;2023-12-29T07:39:37;95549.41;;;8.61;60.67
79612;BME280;69094;48.154;11.536;2023-12-29T07:42:03;95550.41;;;8.66;60.89
79612;BME280;69094;48.154;11.536;2023-12-29T07:44:28;95556.44;;;8.62;61.39
79612;BME280;69094;48.154;11.536;2023-12-29T07:46:57;95554.53;;;8.63;61.65
79612;BME280;69094;48.154;11.536;2023-12-29T07:49:22;95543.97;;;8.61;61.96
79612;BME280;69094;48.154;11.536;2023-12-29T07:51:48;95556.94;;;8.65;62.00
79612;BME280;69094;48.154;11.536;2023-12-29T07:54:13;95553.25;;;8.60;62.62
79612;BME280;69094;48.154;11.536;2023-12-29T07:56:38;95551.31;;;8.61;62.83
79612;BME280;69094;48.154;11.536;2023-12-29T07:59:04;95547.81;;;8.60;63.13
79612;BME280;69094;48.154;11.536;2023-12-29T08:01:30;95551.63;;;8.59;63.45
79612;BME280;69094;48.154;11.536;2023-12-29T08:03:55;95571.59;;;8.63;63.51
79612;BME280;69094;48.154;11.536;2023-12-29T08:06:20;95578.16;;;8.62;63.66
79612;BME280;69094;48.154;11.536;2023-12-29T08:08:46;95571.44;;;8.60;63.93
79612;BME280;69094;48.154;11.536;2023-12-29T08:11:17;95575.94;;;8.65;63.53
79612;BME280;69094;48.154;11.536;2023-12-29T08:13:47;95582.31;;;8.69;63.90
79612;BME280;69094;48.154;11.536;2023-12-29T08:16:13;95573.25;;;8.73;63.64
79612;BME280;69094;48.154;11.536;2023-12-29T08:18:38;95562.00;;;8.57;63.94
79612;BME280;69094;48.154;11.536;2023-12-29T08:21:03;95584.72;;;8.70;63.85
79612;BME280;69094;48.154;11.536;2023-12-29T08:23:29;95578.81;;;8.77;63.58
79612;BME280;69094;48.154;11.536;2023-12-29T08:28:25;95583.31;;;8.81;63.60
79612;BME280;69094;48.154;11.536;2023-12-29T08:30:50;95583.19;;;8.87;63.59
79612;BME280;69094;48.154;11.536;2023-12-29T08:33:16;95589.09;;;8.89;63.27
79612;BME280;69094;48.154;11.536;2023-12-29T08:35:43;95583.09;;;9.00;62.82
79612;BME280;69094;48.154;11.536;2023-12-29T08:38:09;95592.22;;;9.13;62.70
79612;BME280;69094;48.154;11.536;2023-12-29T08:40:35;95588.72;;;9.13;62.47
79612;BME280;69094;48.154;11.536;2023-12-29T08:43:00;95581.03;;;9.06;62.66
79612;BME280;69094;48.154;11.536;2023-12-29T08:45:27;95586.31;;;9.11;62.65
79612;BME280;69094;48.154;11.536;2023-12-29T08:47:52;95589.22;;;9.15;62.38
79612;BME280;69094;48.154;11.536;2023-12-29T08:50:19;95581.50;;;9.08;62.67
79612;BME280;69094;48.154;11.536;2023-12-29T08:52:44;95571.97;;;9.19;62.51
79612;BME280;69094;48.154;11.536;2023-12-29T08:55:10;95587.59;;;9.14;62.33
79612;BME280;69094;48.154;11.536;2023-12-29T08:57:35;95581.06;;;9.15;62.10
79612;BME280;69094;48.154;11.536;2023-12-29T09:00:01;95582.84;;;9.19;62.16
79612;BME280;69094;48.154;11.536;2023-12-29T09:02:26;95587.00;;;9.25;61.78
79612;BME280;69094;48.154;11.536;2023-12-29T09:04:52;95587.66;;;9.40;61.26
79612;BME280;69094;48.154;11.536;2023-12-29T09:07:17;95586.09;;;9.56;61.12
79612;BME280;69094;48.154;11.536;2023-12-29T09:09:42;95573.31;;;9.57;60.77
79612;BME280;69094;48.154;11.536;2023-12-29T09:12:08;95593.78;;;9.54;60.98
79612;BME280;69094;48.154;11.536;2023-12-29T09:14:33;95584.97;;;9.57;60.91
79612;BME280;69094;48.154;11.536;2023-12-29T09:17:00;95593.28;;;9.61;60.97
79612;BME280;69094;48.154;11.536;2023-12-29T09:19:25;95598.91;;;9.64;60.84
79612;BME280;69094;48.154;11.536;2023-12-29T09:21:50;95603.38;;;9.69;60.74
79612;BME280;69094;48.154;11.536;2023-12-29T09:24:16;95603.88;;;9.80;60.06
79612;BME280;69094;48.154;11.536;2023-12-29T09:26:41;95600.84;;;9.81;60.58
79612;BME280;69094;48.154;11.536;2023-12-29T09:29:07;95601.78;;;9.77;60.66
79612;BME280;69094;48.154;11.536;2023-12-29T09:31:32;95598.56;;;9.83;60.93
79612;BME280;69094;48.154;11.536;2023-12-29T09:33:58;95596.81;;;9.79;60.25
79612;BME280;69094;48.154;11.536;2023-12-29T09:36:23;95591.38;;;9.70;60.83
79612;BME280;69094;48.154;11.536;2023-12-29T09:38:49;95592.19;;;9.70;60.73
79612;BME280;69094;48.154;11.536;2023-12-29T09:41:15;95581.16;;;9.67;61.23
79612;BME280;69094;48.154;11.536;2023-12-29T09:43:41;95589.16;;;9.72;61.04
79612;BME280;69094;48.154;11.536;2023-12-29T09:46:08;95582.09;;;9.71;61.19
79612;BME280;69094;48.154;11.536;2023-12-29T09:48:37;95583.88;;;9.76;60.95
79612;BME280;69094;48.154;11.536;2023-12-29T09:51:04;95583.56;;;9.86;60.64
79612;BME280;69094;48.154;11.536;2023-12-29T09:53:30;95589.97;;;9.90;60.70
79612;BME280;69094;48.154;11.536;2023-12-29T09:55:57;95591.56;;;10.00;60.51
79612;BME280;69094;48.154;11.536;2023-12-29T09:58:25;95581.31;;;10.05;60.30
79612;BME280;69094;48.154;11.536;2023-12-29T10:00:51;95582.25;;;10.01;60.62
79612;BME280;69094;48.154;11.536;2023-12-29T10:03:16;95579.25;;;10.02;60.49
79612;BME280;69094;48.154;11.536;2023-12-29T10:05:43;95583.38;;;10.08;60.62
79612;BME280;69094;48.154;11.536;2023-12-29T10:08:10;95582.78;;;10.29;59.93
79612;BME280;69094;48.154;11.536;2023-12-29T10:10:38;95576.19;;;10.39;59.61
79612;BME280;69094;48.154;11.536;2023-12-29T10:13:06;95570.91;;;10.42;60.01
79612;BME280;69094;48.154;11.536;2023-12-29T10:15:44;95570.25;;;10.45;60.01
79612;BME280;69094;48.154;11.536;2023-12-29T10:18:37;95565.75;;;10.49;60.02
79612;BME280;69094;48.154;11.536;2023-12-29T10:21:15;95550.91;;;10.38;61.11
79612;BME280;69094;48.154;11.536;2023-12-29T10:23:50;95546.59;;;10.37;61.12
79612;BME280;69094;48.154;11.536;2023-12-29T10:26:18;95544.00;;;10.49;61.05
79612;BME280;69094;48.154;11.536;2023-12-29T10:28:46;95545.75;;;10.45;61.26
79612;BME280;69094;48.154;11.536;2023-12-29T10:31:14;95519.81;;;10.48;61.31
79612;BME280;69094;48.154;11.536;2023-12-29T10:33:40;95535.66;;;10.46;61.83
79612;BME280;69094;48.154;11.536;2023-12-29T10:36:06;95531.47;;;10.57;61.70
79612;BME280;69094;48.154;11.536;2023-12-29T10:38:33;95521.50;;;10.70;61.26
79612;BME280;69094;48.154;11.536;2023-12-29T10:41:12;95519.63;;;10.62;61.56
79612;BME280;69094;48.154;11.536;2023-12-29T10:43:41;95520.06;;;10.72;61.71
79612;BME280;69094;48.154;11.536;2023-12-29T10:46:08;95517.81;;;10.74;62.04
79612;BME280;69094;48.154;11.536;2023-12-29T10:48:34;95528.16;;;10.90;61.70
79612;BME280;69094;48.154;11.536;2023-12-29T10:51:01;95520.59;;;10.95;60.73
79612;BME280;69094;48.154;11.536;2023-12-29T10:53:29;95519.31;;;10.93;61.18
79612;BME280;69094;48.154;11.536;2023-12-29T10:55:55;95512.75;;;10.94;60.77
79612;BME280;69094;48.154;11.536;2023-12-29T10:58:23;95497.00;;;10.78;61.02
79612;BME280;69094;48.154;11.536;2023-12-29T11:00:50;95502.16;;;10.63;61.82
79612;BME280;69094;48.154;11.536;2023-12-29T11:03:17;95500.41;;;10.67;61.78
79612;BME280;69094;48.154;11.536;2023-12-29T11:05:42;95491.28;;;10.63;61.53
79612;BME280;69094;48.154;11.536;2023-12-29T11:08:16;95495.31;;;10.56;61.99
79612;BME280;69094;48.154;11.536;2023-12-29T11:10:43;95497.34;;;10.68;61.79
79612;BME280;69094;48.154;11.536;2023-12-29T11:13:11;95489.28;;;10.81;61.32
79612;BME280;69094;48.154;11.536;2023-12-29T11:15:42;95501.53;;;10.95;60.86
79612;BME280;69094;48.154;11.536;2023-12-29T11:18:12;95496.53;;;11.27;59.50
79612;BME280;69094;48.154;11.536;2023-12-29T11:20:38;95491.88;;;11.28;59.28
79612;BME280;69094;48.154;11.536;2023-12-29T11:23:06;95483.78;;;11.19;59.75
79612;BME280;69094;48.154;11.536;2023-12-29T11:25:32;95477.88;;;11.38;59.22
79612;BME280;69094;48.154;11.536;2023-12-29T11:27:59;95493.03;;;11.69;58.50
79612;BME280;69094;48.154;11.536;2023-12-29T11:30:25;95475.25;;;11.83;57.85
79612;BME280;69094;48.154;11.536;2023-12-29T11:33:06;95470.66;;;11.96;57.09
79612;BME280;69094;48.154;11.536;2023-12-29T11:35:43;95477.41;;;11.78;58.06
79612;BME280;69094;48.154;11.536;2023-12-29T11:38:25;95480.31;;;11.52;58.29
79612;BME280;69094;48.154;11.536;2023-12-29T11:41:08;95453.47;;;11.62;58.01
79612;BME280;69094;48.154;11.536;2023-12-29T11:43:35;95475.53;;;11.70;58.21
79612;BME280;69094;48.154;11.536;2023-12-29T11:46:02;95471.75;;;11.62;58.26
79612;BME280;69094;48.154;11.536;2023-12-29T11:48:53;95460.94;;;11.53;58.16
79612;BME280;69094;48.154;11.536;2023-12-29T11:53:54;95462.31;;;12.14;56.65
79612;BME280;69094;48.154;11.536;2023-12-29T11:56:19;95471.47;;;12.42;56.02
79612;BME280;69094;48.154;11.536;2023-12-29T11:58:45;95456.34;;;12.45;55.56
79612;BME280;69094;48.154;11.536;2023-12-29T12:01:10;95452.69;;;12.41;55.62
79612;BME280;69094;48.154;11.536;2023-12-29T12:03:36;95461.91;;;12.36;55.84
79612;BME280;69094;48.154;11.536;2023-12-29T12:06:01;95444.59;;;12.32;55.59
79612;BME280;69094;48.154;11.536;2023-12-29T12:08:35;95457.56;;;12.23;56.07
79612;BME280;69094;48.154;11.536;2023-12-29T12:13:57;95453.69;;;12.24;56.05
79612;BME280;69094;48.154;11.536;2023-12-29T12:19:10;95449.72;;;12.21;55.95
79612;BME280;69094;48.154;11.536;2023-12-29T12:21:37;95449.22;;;12.07;56.04
79612;BME280;69094;48.154;11.536;2023-12-29T12:24:04;95442.97;;;11.73;57.45
79612;BME280;69094;48.154;11.536;2023-12-29T12:26:31;95433.78;;;11.78;57.16
79612;BME280;69094;48.154;11.536;2023-12-29T12:28:56;95440.09;;;11.70;57.57
79612;BME280;69094;48.154;11.536;2023-12-29T12:31:22;95433.72;;;11.66;57.28
79612;BME280;69094;48.154;11.536;2023-12-29T12:33:57;95428.53;;;11.73;57.38
79612;BME280;69094;48.154;11.536;2023-12-29T12:36:23;95437.00;;;11.59;57.25
79612;BME280;69094;48.154;11.536;2023-12-29T12:38:56;95428.22;;;11.53;57.56
79612;BME280;69094;48.154;11.536;2023-12-29T12:41:23;95424.38;;;11.54;57.56
79612;BME280;69094;48.154;11.536;2023-12-29T12:44:12;95440.72;;;11.54;57.64
79612;BME280;69094;48.154;11.536;2023-12-29T12:49:16;95445.91;;;11.47;57.26
79612;BME280;69094;48.154;11.536;2023-12-29T12:51:42;95457.16;;;11.46;57.56
79612;BME280;69094;48.154;11.536;2023-12-29T12:54:09;95445.91;;;11.26;57.81
79612;BME280;69094;48.154;11.536;2023-12-29T12:56:35;95443.03;;;11.23;57.62
79612;BME280;69094;48.154;11.536;2023-12-29T12:59:02;95448.50;;;11.23;57.69
79612;BME280;69094;48.154;11.536;2023-12-29T13:01:28;95446.91;;;11.21;58.21
79612;BME280;69094;48.154;11.536;2023-12-29T13:03:56;95446.16;;;11.12;58.18
79612;BME280;69094;48.154;11.536;2023-12-29T13:06:23;95440.88;;;11.16;57.61
79612;BME280;69094;48.154;11.536;2023-12-29T13:08:50;95450.63;;;11.17;57.60
79612;BME280;69094;48.154;11.536;2023-12-29T13:11:20;95444.09;;;11.09;57.74